sensor_id;sensor_type;location;lat;lon;timestamp;P1;durP1;ratioP1;P2;durP2;ratioP2
34872;SDS011;21084;51.098;14.506;2022-08-19T00:01:12;24.08;;;19.95;;
34872;SDS011;21084;51.098;14.506;2022-08-19T00:03:27;22.55;;;19.02;;
34872;SDS011;21084;51.098;14.506;2022-08-19T00:05:30;23.48;;;18.83;;
34872;SDS011;21084;51.098;14.506;2022-08-19T00:07:34;24.27;;;19.92;;
34872;SDS011;21084;51.098;14.506;2022-08-19T00:09:39;26.38;;;20.05;;
34872;SDS011;21084;51.098;14.506;2022-08-19T00:11:43;21.05;;;18.73;;
34872;SDS011;21084;51.098;14.506;2022-08-19T00:13:46;28.15;;;19.42;;
34872;SDS011;21084;51.098;14.506;2022-08-19T00:15:50;24.42;;;18.90;;
34872;SDS011;21084;51.098;14.506;2022-08-19T00:17:53;23.35;;;19.25;;
34872;SDS011;21084;51.098;14.506;2022-08-19T00:19:56;23.60;;;18.80;;
34872;SDS011;21084;51.098;14.506;2022-08-19T00:21:59;22.40;;;19.50;;
34872;SDS011;21084;51.098;14.506;2022-08-19T00:24:03;27.30;;;19.35;;
34872;SDS011;21084;51.098;14.506;2022-08-19T00:26:09;23.20;;;18.52;;
34872;SDS011;21084;51.098;14.506;2022-08-19T00:28:12;21.80;;;18.42;;
34872;SDS011;21084;51.098;14.506;2022-08-19T00:30:16;25.15;;;19.17;;
34872;SDS011;21084;51.098;14.506;2022-08-19T00:32:19;26.02;;;19.00;;
34872;SDS011;21084;51.098;14.506;2022-08-19T00:34:22;24.38;;;18.95;;
34872;SDS011;21084;51.098;14.506;2022-08-19T00:36:25;24.17;;;19.55;;
34872;SDS011;21084;51.098;14.506;2022-08-19T00:38:28;38.45;;;19.52;;
34872;SDS011;21084;51.098;14.506;2022-08-19T00:40:39;25.02;;;19.58;;
34872;SDS011;21084;51.098;14.506;2022-08-19T00:42:47;46.95;;;19.33;;
34872;SDS011;21084;51.098;14.506;2022-08-19T00:44:50;26.83;;;20.02;;
34872;SDS011;21084;51.098;14.506;2022-08-19T00:46:55;29.63;;;19.52;;
34872;SDS011;21084;51.098;14.506;2022-08-19T00:49:00;23.95;;;19.13;;
34872;SDS011;21084;51.098;14.506;2022-08-19T00:51:05;25.77;;;19.33;;
34872;SDS011;21084;51.098;14.506;2022-08-19T00:53:08;30.02;;;19.00;;
34872;SDS011;21084;51.098;14.506;2022-08-19T00:55:14;23.27;;;18.75;;
34872;SDS011;21084;51.098;14.506;2022-08-19T00:57:22;23.10;;;19.85;;
34872;SDS011;21084;51.098;14.506;2022-08-19T00:59:31;26.67;;;19.23;;
34872;SDS011;21084;51.098;14.506;2022-08-19T01:01:56;23.35;;;19.40;;
34872;SDS011;21084;51.098;14.506;2022-08-19T01:04:00;23.75;;;18.65;;
34872;SDS011;21084;51.098;14.506;2022-08-19T01:06:03;25.05;;;18.33;;
34872;SDS011;21084;51.098;14.506;2022-08-19T01:08:08;23.15;;;19.38;;
34872;SDS011;21084;51.098;14.506;2022-08-19T01:10:13;25.15;;;18.90;;
34872;SDS011;21084;51.098;14.506;2022-08-19T01:12:18;25.42;;;19.63;;
34872;SDS011;21084;51.098;14.506;2022-08-19T01:14:21;31.08;;;21.40;;
34872;SDS011;21084;51.098;14.506;2022-08-19T01:16:28;25.05;;;20.05;;
34872;SDS011;21084;51.098;14.506;2022-08-19T01:18:32;23.38;;;19.63;;
34872;SDS011;21084;51.098;14.506;2022-08-19T01:20:40;24.45;;;19.60;;
34872;SDS011;21084;51.098;14.506;2022-08-19T01:22:47;26.90;;;19.45;;
34872;SDS011;21084;51.098;14.506;2022-08-19T01:24:52;23.85;;;19.35;;
34872;SDS011;21084;51.098;14.506;2022-08-19T01:26:57;23.38;;;18.77;;
34872;SDS011;21084;51.098;14.506;2022-08-19T01:29:00;26.42;;;20.05;;
34872;SDS011;21084;51.098;14.506;2022-08-19T01:31:06;28.67;;;21.40;;
34872;SDS011;21084;51.098;14.506;2022-08-19T01:33:29;27.38;;;21.80;;
34872;SDS011;21084;51.098;14.506;2022-08-19T01:35:32;29.30;;;22.08;;
34872;SDS011;21084;51.098;14.506;2022-08-19T01:37:50;31.23;;;23.13;;
34872;SDS011;21084;51.098;14.506;2022-08-19T01:39:55;29.33;;;23.25;;
34872;SDS011;21084;51.098;14.506;2022-08-19T01:41:58;33.92;;;23.80;;
34872;SDS011;21084;51.098;14.506;2022-08-19T01:44:04;36.38;;;24.92;;
34872;SDS011;21084;51.098;14.506;2022-08-19T01:46:20;31.95;;;24.67;;
34872;SDS011;21084;51.098;14.506;2022-08-19T01:48:26;34.08;;;25.00;;
34872;SDS011;21084;51.098;14.506;2022-08-19T01:50:29;35.63;;;24.42;;
34872;SDS011;21084;51.098;14.506;2022-08-19T01:52:34;33.58;;;25.23;;
34872;SDS011;21084;51.098;14.506;2022-08-19T01:54:39;33.33;;;24.00;;
34872;SDS011;21084;51.098;14.506;2022-08-19T01:56:42;32.38;;;23.95;;
34872;SDS011;21084;51.098;14.506;2022-08-19T01:58:47;36.25;;;25.60;;
34872;SDS011;21084;51.098;14.506;2022-08-19T02:00:53;34.28;;;26.27;;
34872;SDS011;21084;51.098;14.506;2022-08-19T02:02:57;35.10;;;25.50;;
34872;SDS011;21084;51.098;14.506;2022-08-19T02:05:00;36.70;;;25.20;;
34872;SDS011;21084;51.098;14.506;2022-08-19T02:07:03;37.40;;;24.88;;
34872;SDS011;21084;51.098;14.506;2022-08-19T02:09:07;40.47;;;27.17;;
34872;SDS011;21084;51.098;14.506;2022-08-19T02:11:17;32.60;;;25.67;;
34872;SDS011;21084;51.098;14.506;2022-08-19T02:13:25;38.10;;;26.85;;
34872;SDS011;21084;51.098;14.506;2022-08-19T02:15:28;33.80;;;26.20;;
34872;SDS011;21084;51.098;14.506;2022-08-19T02:17:31;39.58;;;27.77;;
34872;SDS011;21084;51.098;14.506;2022-08-19T02:19:34;36.38;;;27.88;;
34872;SDS011;21084;51.098;14.506;2022-08-19T02:21:39;39.80;;;28.52;;
34872;SDS011;21084;51.098;14.506;2022-08-19T02:23:42;36.30;;;28.15;;
34872;SDS011;21084;51.098;14.506;2022-08-19T02:25:46;36.58;;;27.98;;
34872;SDS011;21084;51.098;14.506;2022-08-19T02:27:52;39.15;;;28.92;;
34872;SDS011;21084;51.098;14.506;2022-08-19T02:29:56;38.08;;;28.73;;
34872;SDS011;21084;51.098;14.506;2022-08-19T02:31:59;37.65;;;27.20;;
34872;SDS011;21084;51.098;14.506;2022-08-19T02:34:02;35.80;;;27.80;;
34872;SDS011;21084;51.098;14.506;2022-08-19T02:36:09;43.20;;;31.40;;
34872;SDS011;21084;51.098;14.506;2022-08-19T02:38:16;35.58;;;28.90;;
34872;SDS011;21084;51.098;14.506;2022-08-19T02:40:19;38.75;;;29.80;;
34872;SDS011;21084;51.098;14.506;2022-08-19T02:42:22;38.78;;;29.73;;
34872;SDS011;21084;51.098;14.506;2022-08-19T02:44:28;38.35;;;29.38;;
34872;SDS011;21084;51.098;14.506;2022-08-19T02:46:33;41.15;;;30.92;;
34872;SDS011;21084;51.098;14.506;2022-08-19T02:48:36;38.92;;;29.38;;
34872;SDS011;21084;51.098;14.506;2022-08-19T02:50:40;39.45;;;29.42;;
34872;SDS011;21084;51.098;14.506;2022-08-19T02:52:54;42.92;;;31.60;;
34872;SDS011;21084;51.098;14.506;2022-08-19T02:54:57;41.90;;;31.00;;
34872;SDS011;21084;51.098;14.506;2022-08-19T02:57:01;42.33;;;30.98;;
34872;SDS011;21084;51.098;14.506;2022-08-19T02:59:04;43.78;;;30.90;;
34872;SDS011;21084;51.098;14.506;2022-08-19T03:01:18;42.53;;;31.38;;
34872;SDS011;21084;51.098;14.506;2022-08-19T03:03:22;45.05;;;33.97;;
34872;SDS011;21084;51.098;14.506;2022-08-19T03:05:26;45.75;;;32.55;;
34872;SDS011;21084;51.098;14.506;2022-08-19T03:07:49;44.75;;;32.25;;
34872;SDS011;21084;51.098;14.506;2022-08-19T03:09:52;45.85;;;32.10;;
34872;SDS011;21084;51.098;14.506;2022-08-19T03:11:55;41.95;;;32.78;;
34872;SDS011;21084;51.098;14.506;2022-08-19T03:13:58;43.40;;;31.83;;
34872;SDS011;21084;51.098;14.506;2022-08-19T03:16:04;40.45;;;31.30;;
34872;SDS011;21084;51.098;14.506;2022-08-19T03:18:10;43.25;;;30.83;;
34872;SDS011;21084;51.098;14.506;2022-08-19T03:20:14;41.95;;;32.20;;
34872;SDS011;21084;51.098;14.506;2022-08-19T03:22:17;43.38;;;32.28;;
34872;SDS011;21084;51.098;14.506;2022-08-19T03:24:21;42.25;;;32.05;;
34872;SDS011;21084;51.098;14.506;2022-08-19T03:26:25;45.20;;;33.15;;
34872;SDS011;21084;51.098;14.506;2022-08-19T03:28:28;44.70;;;33.33;;
34872;SDS011;21084;51.098;14.506;2022-08-19T03:30:31;48.17;;;33.50;;
34872;SDS011;21084;51.098;14.506;2022-08-19T03:32:34;48.42;;;34.40;;
34872;SDS011;21084;51.098;14.506;2022-08-19T03:34:45;47.00;;;33.20;;
34872;SDS011;21084;51.098;14.506;2022-08-19T03:36:48;46.83;;;35.90;;
34872;SDS011;21084;51.098;14.506;2022-08-19T03:38:54;47.25;;;34.10;;
34872;SDS011;21084;51.098;14.506;2022-08-19T03:41:04;46.42;;;33.75;;
34872;SDS011;21084;51.098;14.506;2022-08-19T03:43:09;54.90;;;35.20;;
34872;SDS011;21084;51.098;14.506;2022-08-19T03:45:12;46.58;;;34.75;;
34872;SDS011;21084;51.098;14.506;2022-08-19T03:47:15;49.38;;;34.38;;
34872;SDS011;21084;51.098;14.506;2022-08-19T03:49:18;43.03;;;31.92;;
34872;SDS011;21084;51.098;14.506;2022-08-19T03:51:32;43.30;;;31.25;;
34872;SDS011;21084;51.098;14.506;2022-08-19T03:53:40;44.83;;;31.65;;
34872;SDS011;21084;51.098;14.506;2022-08-19T03:55:43;43.45;;;31.75;;
34872;SDS011;21084;51.098;14.506;2022-08-19T03:57:46;41.17;;;31.77;;
34872;SDS011;21084;51.098;14.506;2022-08-19T03:59:49;43.72;;;32.53;;
34872;SDS011;21084;51.098;14.506;2022-08-19T04:01:52;44.80;;;32.97;;
34872;SDS011;21084;51.098;14.506;2022-08-19T04:03:56;40.47;;;31.75;;
34872;SDS011;21084;51.098;14.506;2022-08-19T04:06:08;42.72;;;32.28;;
34872;SDS011;21084;51.098;14.506;2022-08-19T04:08:15;41.97;;;32.80;;
34872;SDS011;21084;51.098;14.506;2022-08-19T04:10:18;47.53;;;32.70;;
34872;SDS011;21084;51.098;14.506;2022-08-19T04:12:21;41.90;;;31.42;;
34872;SDS011;21084;51.098;14.506;2022-08-19T04:14:25;42.88;;;30.58;;
34872;SDS011;21084;51.098;14.506;2022-08-19T04:16:30;35.35;;;28.63;;
34872;SDS011;21084;51.098;14.506;2022-08-19T04:18:37;34.33;;;28.65;;
34872;SDS011;21084;51.098;14.506;2022-08-19T04:20:42;38.28;;;29.40;;
34872;SDS011;21084;51.098;14.506;2022-08-19T04:22:45;37.47;;;29.85;;
34872;SDS011;21084;51.098;14.506;2022-08-19T04:24:51;38.90;;;30.90;;
34872;SDS011;21084;51.098;14.506;2022-08-19T04:26:53;37.10;;;29.45;;
34872;SDS011;21084;51.098;14.506;2022-08-19T04:28:56;42.42;;;30.40;;
34872;SDS011;21084;51.098;14.506;2022-08-19T04:31:00;40.05;;;30.27;;
34872;SDS011;21084;51.098;14.506;2022-08-19T04:33:03;37.63;;;29.98;;
34872;SDS011;21084;51.098;14.506;2022-08-19T04:35:06;38.15;;;28.45;;
34872;SDS011;21084;51.098;14.506;2022-08-19T04:37:20;35.35;;;28.17;;
34872;SDS011;21084;51.098;14.506;2022-08-19T04:39:24;36.97;;;29.05;;
34872;SDS011;21084;51.098;14.506;2022-08-19T04:41:32;34.47;;;27.58;;
34872;SDS011;21084;51.098;14.506;2022-08-19T04:43:36;35.25;;;28.25;;
34872;SDS011;21084;51.098;14.506;2022-08-19T04:45:41;41.50;;;29.65;;
34872;SDS011;21084;51.098;14.506;2022-08-19T04:47:45;37.90;;;28.85;;
34872;SDS011;21084;51.098;14.506;2022-08-19T04:50:08;36.97;;;29.55;;
34872;SDS011;21084;51.098;14.506;2022-08-19T04:52:12;42.65;;;31.13;;
34872;SDS011;21084;51.098;14.506;2022-08-19T04:54:16;40.15;;;30.38;;
34872;SDS011;21084;51.098;14.506;2022-08-19T04:56:42;44.90;;;33.72;;
34872;SDS011;21084;51.098;14.506;2022-08-19T04:58:45;54.08;;;35.60;;
34872;SDS011;21084;51.098;14.506;2022-08-19T05:00:49;46.53;;;34.33;;
34872;SDS011;21084;51.098;14.506;2022-08-19T05:02:52;47.33;;;34.60;;
34872;SDS011;21084;51.098;14.506;2022-08-19T05:04:56;56.00;;;35.90;;
34872;SDS011;21084;51.098;14.506;2022-08-19T05:06:59;47.10;;;35.15;;
34872;SDS011;21084;51.098;14.506;2022-08-19T05:09:04;47.35;;;34.75;;
34872;SDS011;21084;51.098;14.506;2022-08-19T05:11:08;43.58;;;32.88;;
34872;SDS011;21084;51.098;14.506;2022-08-19T05:13:18;48.20;;;34.15;;
34872;SDS011;21084;51.098;14.506;2022-08-19T05:15:22;46.28;;;35.50;;
34872;SDS011;21084;51.098;14.506;2022-08-19T05:17:25;46.63;;;33.05;;
34872;SDS011;21084;51.098;14.506;2022-08-19T05:19:33;45.13;;;33.88;;
34872;SDS011;21084;51.098;14.506;2022-08-19T05:21:36;47.05;;;33.67;;
34872;SDS011;21084;51.098;14.506;2022-08-19T05:23:39;42.85;;;33.25;;
34872;SDS011;21084;51.098;14.506;2022-08-19T05:25:42;47.42;;;31.80;;
34872;SDS011;21084;51.098;14.506;2022-08-19T05:27:46;47.65;;;32.58;;
34872;SDS011;21084;51.098;14.506;2022-08-19T05:29:52;41.30;;;31.15;;
34872;SDS011;21084;51.098;14.506;2022-08-19T05:31:55;43.65;;;32.00;;
34872;SDS011;21084;51.098;14.506;2022-08-19T05:33:58;45.10;;;32.40;;
34872;SDS011;21084;51.098;14.506;2022-08-19T05:36:02;50.05;;;32.90;;
34872;SDS011;21084;51.098;14.506;2022-08-19T05:38:05;43.08;;;31.48;;
34872;SDS011;21084;51.098;14.506;2022-08-19T05:40:09;44.13;;;32.55;;
34872;SDS011;21084;51.098;14.506;2022-08-19T05:42:13;45.50;;;32.92;;
34872;SDS011;21084;51.098;14.506;2022-08-19T05:44:16;46.15;;;32.25;;
34872;SDS011;21084;51.098;14.506;2022-08-19T05:46:22;53.88;;;33.33;;
34872;SDS011;21084;51.098;14.506;2022-08-19T05:48:29;49.90;;;33.78;;
34872;SDS011;21084;51.098;14.506;2022-08-19T05:50:32;46.63;;;32.25;;
34872;SDS011;21084;51.098;14.506;2022-08-19T05:52:36;54.97;;;34.10;;
34872;SDS011;21084;51.098;14.506;2022-08-19T05:54:47;48.85;;;32.78;;
34872;SDS011;21084;51.098;14.506;2022-08-19T05:56:53;48.33;;;33.88;;
34872;SDS011;21084;51.098;14.506;2022-08-19T05:58:56;50.20;;;32.63;;
34872;SDS011;21084;51.098;14.506;2022-08-19T06:01:00;50.95;;;32.85;;
34872;SDS011;21084;51.098;14.506;2022-08-19T06:03:06;51.38;;;34.28;;
34872;SDS011;21084;51.098;14.506;2022-08-19T06:05:14;52.33;;;33.67;;
34872;SDS011;21084;51.098;14.506;2022-08-19T06:07:17;46.00;;;31.58;;
34872;SDS011;21084;51.098;14.506;2022-08-19T06:09:20;48.72;;;32.90;;
34872;SDS011;21084;51.098;14.506;2022-08-19T06:11:25;46.58;;;31.88;;
34872;SDS011;21084;51.098;14.506;2022-08-19T06:13:35;49.47;;;31.70;;
34872;SDS011;21084;51.098;14.506;2022-08-19T06:15:38;46.10;;;32.80;;
34872;SDS011;21084;51.098;14.506;2022-08-19T06:17:41;44.08;;;30.30;;
34872;SDS011;21084;51.098;14.506;2022-08-19T06:19:47;46.42;;;31.95;;
34872;SDS011;21084;51.098;14.506;2022-08-19T06:21:50;43.10;;;29.83;;
34872;SDS011;21084;51.098;14.506;2022-08-19T06:23:55;41.10;;;29.67;;
34872;SDS011;21084;51.098;14.506;2022-08-19T06:25:59;44.67;;;30.70;;
34872;SDS011;21084;51.098;14.506;2022-08-19T06:28:02;46.92;;;29.10;;
34872;SDS011;21084;51.098;14.506;2022-08-19T06:30:21;39.43;;;28.47;;
34872;SDS011;21084;51.098;14.506;2022-08-19T06:32:24;43.85;;;29.80;;
34872;SDS011;21084;51.098;14.506;2022-08-19T06:34:28;38.58;;;27.20;;
34872;SDS011;21084;51.098;14.506;2022-08-19T06:36:36;38.60;;;27.27;;
34872;SDS011;21084;51.098;14.506;2022-08-19T06:38:41;39.60;;;27.45;;
34872;SDS011;21084;51.098;14.506;2022-08-19T06:40:47;37.45;;;26.92;;
34872;SDS011;21084;51.098;14.506;2022-08-19T06:42:50;35.25;;;26.02;;
34872;SDS011;21084;51.098;14.506;2022-08-19T06:44:56;36.70;;;25.92;;
34872;SDS011;21084;51.098;14.506;2022-08-19T06:47:01;36.20;;;25.92;;
34872;SDS011;21084;51.098;14.506;2022-08-19T06:49:16;37.33;;;25.20;;
34872;SDS011;21084;51.098;14.506;2022-08-19T06:51:20;35.10;;;24.88;;
34872;SDS011;21084;51.098;14.506;2022-08-19T06:53:27;36.00;;;24.85;;
34872;SDS011;21084;51.098;14.506;2022-08-19T06:55:30;35.63;;;24.92;;
34872;SDS011;21084;51.098;14.506;2022-08-19T06:57:34;34.25;;;24.02;;
34872;SDS011;21084;51.098;14.506;2022-08-19T06:59:37;35.95;;;24.83;;
34872;SDS011;21084;51.098;14.506;2022-08-19T07:01:42;32.33;;;24.50;;
34872;SDS011;21084;51.098;14.506;2022-08-19T07:03:46;33.55;;;25.25;;
34872;SDS011;21084;51.098;14.506;2022-08-19T07:05:49;29.70;;;22.25;;
34872;SDS011;21084;51.098;14.506;2022-08-19T07:07:52;30.02;;;22.70;;
34872;SDS011;21084;51.098;14.506;2022-08-19T07:10:02;29.77;;;21.75;;
34872;SDS011;21084;51.098;14.506;2022-08-19T07:12:10;27.40;;;21.05;;
34872;SDS011;21084;51.098;14.506;2022-08-19T07:14:15;26.27;;;20.35;;
34872;SDS011;21084;51.098;14.506;2022-08-19T07:16:21;22.42;;;18.20;;
34872;SDS011;21084;51.098;14.506;2022-08-19T07:18:30;21.13;;;16.27;;
34872;SDS011;21084;51.098;14.506;2022-08-19T07:20:34;18.95;;;16.10;;
34872;SDS011;21084;51.098;14.506;2022-08-19T07:22:37;19.77;;;15.13;;
34872;SDS011;21084;51.098;14.506;2022-08-19T07:24:41;16.23;;;13.98;;
34872;SDS011;21084;51.098;14.506;2022-08-19T07:26:56;17.05;;;12.75;;
34872;SDS011;21084;51.098;14.506;2022-08-19T07:29:00;15.25;;;12.48;;
34872;SDS011;21084;51.098;14.506;2022-08-19T07:31:05;15.18;;;12.18;;
34872;SDS011;21084;51.098;14.506;2022-08-19T07:33:10;13.40;;;11.02;;
34872;SDS011;21084;51.098;14.506;2022-08-19T07:35:16;13.10;;;9.57;;
34872;SDS011;21084;51.098;14.506;2022-08-19T07:37:19;10.90;;;9.60;;
34872;SDS011;21084;51.098;14.506;2022-08-19T07:39:23;10.07;;;8.35;;
34872;SDS011;21084;51.098;14.506;2022-08-19T07:41:28;11.73;;;9.25;;
34872;SDS011;21084;51.098;14.506;2022-08-19T07:43:34;9.07;;;8.18;;
34872;SDS011;21084;51.098;14.506;2022-08-19T07:45:37;10.48;;;8.07;;
34872;SDS011;21084;51.098;14.506;2022-08-19T07:47:40;8.35;;;7.55;;
34872;SDS011;21084;51.098;14.506;2022-08-19T07:49:52;9.48;;;7.80;;
34872;SDS011;21084;51.098;14.506;2022-08-19T07:51:56;8.63;;;7.72;;
34872;SDS011;21084;51.098;14.506;2022-08-19T07:54:01;9.45;;;8.48;;
34872;SDS011;21084;51.098;14.506;2022-08-19T07:56:04;9.02;;;8.00;;
34872;SDS011;21084;51.098;14.506;2022-08-19T07:58:08;8.00;;;7.20;;
34872;SDS011;21084;51.098;14.506;2022-08-19T08:00:15;6.97;;;6.28;;
34872;SDS011;21084;51.098;14.506;2022-08-19T08:02:25;8.00;;;7.20;;
34872;SDS011;21084;51.098;14.506;2022-08-19T08:04:29;10.38;;;6.60;;
34872;SDS011;21084;51.098;14.506;2022-08-19T08:06:33;7.07;;;6.22;;
34872;SDS011;21084;51.098;14.506;2022-08-19T08:08:36;7.65;;;6.07;;
34872;SDS011;21084;51.098;14.506;2022-08-19T08:10:49;6.95;;;6.25;;
34872;SDS011;21084;51.098;14.506;2022-08-19T08:12:58;6.78;;;6.05;;
34872;SDS011;21084;51.098;14.506;2022-08-19T08:15:15;7.32;;;6.07;;
34872;SDS011;21084;51.098;14.506;2022-08-19T08:17:19;8.18;;;6.18;;
34872;SDS011;21084;51.098;14.506;2022-08-19T08:19:44;6.85;;;6.20;;
34872;SDS011;21084;51.098;14.506;2022-08-19T08:21:53;10.55;;;7.03;;
34872;SDS011;21084;51.098;14.506;2022-08-19T08:23:57;6.75;;;6.10;;
34872;SDS011;21084;51.098;14.506;2022-08-19T08:26:20;7.00;;;6.30;;
34872;SDS011;21084;51.098;14.506;2022-08-19T08:28:23;7.05;;;6.35;;
34872;SDS011;21084;51.098;14.506;2022-08-19T08:30:33;8.63;;;6.57;;
34872;SDS011;21084;51.098;14.506;2022-08-19T08:32:37;6.82;;;6.18;;
34872;SDS011;21084;51.098;14.506;2022-08-19T08:34:42;7.78;;;6.80;;
34872;SDS011;21084;51.098;14.506;2022-08-19T08:36:48;7.80;;;6.72;;
34872;SDS011;21084;51.098;14.506;2022-08-19T08:38:51;7.28;;;6.47;;
34872;SDS011;21084;51.098;14.506;2022-08-19T08:41:17;8.05;;;6.78;;
34872;SDS011;21084;51.098;14.506;2022-08-19T08:43:27;7.18;;;6.45;;
34872;SDS011;21084;51.098;14.506;2022-08-19T08:45:38;8.32;;;6.88;;
34872;SDS011;21084;51.098;14.506;2022-08-19T08:47:47;10.68;;;6.75;;
34872;SDS011;21084;51.098;14.506;2022-08-19T08:49:55;8.18;;;6.65;;
34872;SDS011;21084;51.098;14.506;2022-08-19T08:52:04;9.00;;;7.85;;
34872;SDS011;21084;51.098;14.506;2022-08-19T08:54:10;8.45;;;7.53;;
34872;SDS011;21084;51.098;14.506;2022-08-19T08:56:14;8.95;;;8.00;;
34872;SDS011;21084;51.098;14.506;2022-08-19T08:58:21;9.93;;;8.32;;
34872;SDS011;21084;51.098;14.506;2022-08-19T09:00:29;10.02;;;8.57;;
34872;SDS011;21084;51.098;14.506;2022-08-19T09:02:37;12.35;;;8.45;;
34872;SDS011;21084;51.098;14.506;2022-08-19T09:04:44;10.10;;;9.05;;
34872;SDS011;21084;51.098;14.506;2022-08-19T09:06:51;11.68;;;8.93;;
34872;SDS011;21084;51.098;14.506;2022-08-19T09:09:20;11.25;;;8.98;;
34872;SDS011;21084;51.098;14.506;2022-08-19T09:11:37;10.25;;;8.52;;
34872;SDS011;21084;51.098;14.506;2022-08-19T09:13:53;10.25;;;8.88;;
34872;SDS011;21084;51.098;14.506;2022-08-19T09:16:07;12.45;;;9.27;;
34872;SDS011;21084;51.098;14.506;2022-08-19T09:18:16;12.55;;;9.30;;
34872;SDS011;21084;51.098;14.506;2022-08-19T09:20:22;12.93;;;9.32;;
34872;SDS011;21084;51.098;14.506;2022-08-19T09:22:27;13.45;;;9.93;;
34872;SDS011;21084;51.098;14.506;2022-08-19T09:24:30;11.48;;;10.13;;
34872;SDS011;21084;51.098;14.506;2022-08-19T09:26:33;12.20;;;10.48;;
34872;SDS011;21084;51.098;14.506;2022-08-19T09:28:54;14.15;;;10.77;;
34872;SDS011;21084;51.098;14.506;2022-08-19T09:30:59;15.00;;;10.93;;
34872;SDS011;21084;51.098;14.506;2022-08-19T09:33:02;12.73;;;10.98;;
34872;SDS011;21084;51.098;14.506;2022-08-19T09:35:08;17.02;;;12.38;;
34872;SDS011;21084;51.098;14.506;2022-08-19T09:37:13;18.23;;;12.32;;
34872;SDS011;21084;51.098;14.506;2022-08-19T09:39:16;16.05;;;12.50;;
34872;SDS011;21084;51.098;14.506;2022-08-19T09:41:20;18.83;;;14.25;;
34872;SDS011;21084;51.098;14.506;2022-08-19T09:43:25;20.02;;;14.70;;
34872;SDS011;21084;51.098;14.506;2022-08-19T09:45:35;17.15;;;13.18;;
34872;SDS011;21084;51.098;14.506;2022-08-19T09:47:38;18.65;;;14.68;;
34872;SDS011;21084;51.098;14.506;2022-08-19T09:49:42;26.00;;;13.98;;
34872;SDS011;21084;51.098;14.506;2022-08-19T09:51:48;16.27;;;13.10;;
34872;SDS011;21084;51.098;14.506;2022-08-19T09:53:52;19.48;;;14.85;;
34872;SDS011;21084;51.098;14.506;2022-08-19T09:55:57;19.20;;;13.40;;
34872;SDS011;21084;51.098;14.506;2022-08-19T09:58:00;18.48;;;13.90;;
34872;SDS011;21084;51.098;14.506;2022-08-19T10:00:04;18.92;;;14.30;;
34872;SDS011;21084;51.098;14.506;2022-08-19T10:02:09;20.60;;;14.27;;
34872;SDS011;21084;51.098;14.506;2022-08-19T10:04:12;19.02;;;13.65;;
34872;SDS011;21084;51.098;14.506;2022-08-19T10:06:22;21.20;;;14.77;;
34872;SDS011;21084;51.098;14.506;2022-08-19T10:08:49;23.17;;;15.20;;
34872;SDS011;21084;51.098;14.506;2022-08-19T10:10:53;19.77;;;14.65;;
34872;SDS011;21084;51.098;14.506;2022-08-19T10:12:57;20.02;;;14.80;;
34872;SDS011;21084;51.098;14.506;2022-08-19T10:15:02;19.27;;;14.32;;
34872;SDS011;21084;51.098;14.506;2022-08-19T10:17:06;18.13;;;13.50;;
34872;SDS011;21084;51.098;14.506;2022-08-19T10:19:21;19.42;;;14.20;;
34872;SDS011;21084;51.098;14.506;2022-08-19T10:21:28;18.63;;;14.02;;
34872;SDS011;21084;51.098;14.506;2022-08-19T10:23:37;20.45;;;14.75;;
34872;SDS011;21084;51.098;14.506;2022-08-19T10:25:45;19.45;;;14.00;;
34872;SDS011;21084;51.098;14.506;2022-08-19T10:27:49;19.88;;;14.20;;
34872;SDS011;21084;51.098;14.506;2022-08-19T10:29:57;22.85;;;14.32;;
34872;SDS011;21084;51.098;14.506;2022-08-19T10:32:01;19.77;;;13.35;;
34872;SDS011;21084;51.098;14.506;2022-08-19T10:34:10;20.00;;;13.75;;
34872;SDS011;21084;51.098;14.506;2022-08-19T10:36:29;16.83;;;12.68;;
34872;SDS011;21084;51.098;14.506;2022-08-19T10:38:36;15.32;;;12.38;;
34872;SDS011;21084;51.098;14.506;2022-08-19T10:40:40;16.35;;;12.45;;
34872;SDS011;21084;51.098;14.506;2022-08-19T10:42:45;16.05;;;12.63;;
34872;SDS011;21084;51.098;14.506;2022-08-19T10:44:48;15.80;;;11.63;;
34872;SDS011;21084;51.098;14.506;2022-08-19T10:46:53;18.75;;;12.50;;
34872;SDS011;21084;51.098;14.506;2022-08-19T10:48:58;16.90;;;12.88;;
34872;SDS011;21084;51.098;14.506;2022-08-19T10:51:02;15.65;;;11.85;;
34872;SDS011;21084;51.098;14.506;2022-08-19T10:53:06;17.73;;;12.65;;
34872;SDS011;21084;51.098;14.506;2022-08-19T10:55:11;15.20;;;11.98;;
34872;SDS011;21084;51.098;14.506;2022-08-19T10:57:14;17.23;;;12.07;;
34872;SDS011;21084;51.098;14.506;2022-08-19T10:59:21;16.85;;;12.20;;
34872;SDS011;21084;51.098;14.506;2022-08-19T11:01:28;16.55;;;13.00;;
34872;SDS011;21084;51.098;14.506;2022-08-19T11:03:31;17.30;;;12.20;;
34872;SDS011;21084;51.098;14.506;2022-08-19T11:05:34;14.85;;;12.25;;
34872;SDS011;21084;51.098;14.506;2022-08-19T11:07:41;18.67;;;12.80;;
34872;SDS011;21084;51.098;14.506;2022-08-19T11:09:44;16.10;;;12.73;;
34872;SDS011;21084;51.098;14.506;2022-08-19T11:11:47;15.85;;;13.23;;
34872;SDS011;21084;51.098;14.506;2022-08-19T11:13:51;16.20;;;12.75;;
34872;SDS011;21084;51.098;14.506;2022-08-19T11:16:00;17.55;;;13.30;;
34872;SDS011;21084;51.098;14.506;2022-08-19T11:18:09;16.55;;;13.10;;
34872;SDS011;21084;51.098;14.506;2022-08-19T11:20:14;14.05;;;11.85;;
34872;SDS011;21084;51.098;14.506;2022-08-19T11:22:17;15.82;;;12.82;;
34872;SDS011;21084;51.098;14.506;2022-08-19T11:24:21;17.15;;;13.10;;
34872;SDS011;21084;51.098;14.506;2022-08-19T11:26:25;16.90;;;12.30;;
34872;SDS011;21084;51.098;14.506;2022-08-19T11:28:29;16.50;;;12.80;;
34872;SDS011;21084;51.098;14.506;2022-08-19T11:30:32;16.15;;;12.38;;
34872;SDS011;21084;51.098;14.506;2022-08-19T11:32:38;18.70;;;13.10;;
34872;SDS011;21084;51.098;14.506;2022-08-19T11:34:43;20.55;;;14.70;;
34872;SDS011;21084;51.098;14.506;2022-08-19T11:36:46;20.23;;;13.77;;
34872;SDS011;21084;51.098;14.506;2022-08-19T11:38:50;23.95;;;14.63;;
34872;SDS011;21084;51.098;14.506;2022-08-19T11:40:54;18.35;;;14.57;;
34872;SDS011;21084;51.098;14.506;2022-08-19T11:42:58;17.80;;;13.38;;
34872;SDS011;21084;51.098;14.506;2022-08-19T11:45:01;15.93;;;12.63;;
34872;SDS011;21084;51.098;14.506;2022-08-19T11:47:05;19.63;;;12.27;;
34872;SDS011;21084;51.098;14.506;2022-08-19T11:49:13;14.68;;;12.23;;
34872;SDS011;21084;51.098;14.506;2022-08-19T11:51:18;16.90;;;12.75;;
34872;SDS011;21084;51.098;14.506;2022-08-19T11:53:23;18.65;;;12.48;;
34872;SDS011;21084;51.098;14.506;2022-08-19T11:55:26;15.25;;;12.65;;
34872;SDS011;21084;51.098;14.506;2022-08-19T11:57:29;14.93;;;12.40;;
34872;SDS011;21084;51.098;14.506;2022-08-19T11:59:32;16.52;;;13.07;;
34872;SDS011;21084;51.098;14.506;2022-08-19T12:01:35;13.55;;;11.82;;
34872;SDS011;21084;51.098;14.506;2022-08-19T12:03:39;16.70;;;12.15;;
34872;SDS011;21084;51.098;14.506;2022-08-19T12:05:45;14.30;;;12.52;;
34872;SDS011;21084;51.098;14.506;2022-08-19T12:07:48;14.40;;;12.73;;